Time;durP1;ratioP1;P1;durP2;ratioP2;P2;SDS_P1;SDS_P2;PMS_P1;PMS_P2;Temp;Humidity;BMP_temperature;BMP_pressure;BME280_temperature;BME280_humidity;BME280_pressure;Samples;Min_cycle;Max_cycle;Signal;HPM_P1;HPM_P2
2022/11/10 00:06:08;;;;;;;99.92;50.92;;;;;;;2.11;99.01;99211.58;4247697;81;21048;-85
2022/11/10 00:12:29;;;;;;;120.82;61.18;;;;;;;2.10;98.58;99225.39;4253312;82;21050;-84
2022/11/10 00:18:50;;;;;;;130.65;61.88;;;;;;;2.08;98.93;99227.61;4219964;81;20999;-84
2022/11/10 00:25:09;;;;;;;112.05;60.58;;;;;;;1.93;97.86;99235.57;4279069;81;20975;-85
2022/11/10 00:31:29;;;;;;;121.05;61.42;;;;;;;1.83;98.63;99227.77;4280463;81;21006;-86
2022/11/10 00:37:50;;;;;;;104.20;51.95;;;;;;;1.68;98.19;99225.47;4299523;81;21042;-84
2022/11/10 00:44:10;;;;;;;120.53;58.87;;;;;;;1.69;99.44;99234.37;4284678;81;21030;-84
2022/11/10 00:50:29;;;;;;;119.55;61.65;;;;;;;1.71;98.97;99234.29;4281628;81;21030;-85
2022/11/10 01:03:47;;;;;;;109.90;55.33;;;;;;;1.72;99.77;99243.19;4328642;81;20998;-84
2022/11/10 01:10:17;;;;;;;114.88;58.28;;;;;;;1.73;99.81;99246.92;4269315;81;20972;-85
2022/11/10 01:16:37;;;;;;;118.28;60.52;;;;;;;1.73;99.44;99255.56;4225451;82;21029;-84
2022/11/10 01:22:57;;;;;;;120.75;60.12;;;;;;;1.64;99.44;99244.75;4287526;81;21047;-84
2022/11/10 01:29:17;;;;;;;102.78;53.65;;;;;;;1.62;99.58;99246.95;4284086;81;21495;-84
2022/11/10 01:35:39;;;;;;;107.45;52.35;;;;;;;1.74;100.00;99255.83;4294991;81;21009;-85
2022/11/10 01:41:58;;;;;;;100.07;51.00;;;;;;;1.84;100.00;99247.44;4286815;81;20959;-84
2022/11/10 01:49:03;;;;;;;117.50;59.35;;;;;;;1.89;100.00;99258.91;4287809;81;20958;-85
2022/11/10 01:55:30;;;;;;;107.65;54.75;;;;;;;1.85;99.78;99272.00;4215793;84;21068;-84
2022/11/10 02:01:53;;;;;;;102.12;53.68;;;;;;;1.81;99.88;99272.36;4286017;81;21017;-85
2022/11/10 02:08:16;;;;;;;122.37;60.85;;;;;;;1.76;99.97;99280.04;4292968;81;21050;-84
2022/11/10 02:14:37;;;;;;;106.78;56.58;;;;;;;1.59;99.37;99271.86;4299400;81;21553;-84
2022/11/10 02:20:56;;;;;;;125.90;64.47;;;;;;;1.47;99.84;99292.65;4272845;81;21035;-84
2022/11/10 02:27:16;;;;;;;128.68;63.55;;;;;;;1.50;100.00;99298.78;4183048;83;21563;-84
2022/11/10 02:34:18;;;;;;;98.92;51.53;;;;;;;1.46;100.00;99307.80;4183072;83;21595;-84
2022/11/10 02:40:38;;;;;;;111.08;59.38;;;;;;;1.43;100.00;99313.81;4177928;82;21043;-84
2022/11/10 02:46:58;;;;;;;111.88;58.63;;;;;;;1.43;100.00;99315.97;4176039;83;21036;-84
2022/11/10 02:53:17;;;;;;;123.82;62.13;;;;;;;1.42;100.00;99306.83;4183187;83;21031;-84
2022/11/10 02:59:37;;;;;;;108.25;56.63;;;;;;;1.26;99.62;99309.64;4179966;83;21038;-85
2022/11/10 03:05:56;;;;;;;109.78;54.85;;;;;;;1.15;100.00;99320.42;4179745;83;21867;-84
2022/11/10 03:12:17;;;;;;;114.50;58.50;;;;;;;1.06;100.00;99327.11;4186323;83;21003;-84
2022/11/10 03:18:37;;;;;;;106.90;53.30;;;;;;;0.99;100.00;99324.56;4180250;81;21011;-84
2022/11/10 03:25:45;;;;;;;102.92;52.62;;;;;;;1.08;100.00;99324.89;4260699;81;21051;-83
2022/11/10 03:32:05;;;;;;;101.87;53.48;;;;;;;1.19;100.00;99322.20;4243760;82;21001;-84
2022/11/10 03:38:24;;;;;;;98.33;50.67;;;;;;;1.34;100.00;99323.75;4248499;81;21054;-84
2022/11/10 03:44:44;;;;;;;121.40;55.78;;;;;;;1.41;100.00;99338.39;4250796;82;21023;-84
2022/11/10 03:51:04;;;;;;;103.87;50.92;;;;;;;1.45;100.00;99341.28;4244153;82;20980;-84
2022/11/10 03:58:01;;;;;;;91.75;47.50;;;;;;;1.44;100.00;99347.22;4238922;82;21015;-83
2022/11/10 04:10:59;;;;;;;89.45;43.73;;;;;;;1.68;100.00;99345.56;4240405;82;21352;-83
2022/11/10 04:17:22;;;;;;;79.80;41.35;;;;;;;1.72;100.00;99357.89;4259353;82;21019;-84
2022/11/10 04:23:42;;;;;;;80.60;41.25;;;;;;;1.85;100.00;99365.12;4279982;81;21026;-84
2022/11/10 04:30:24;;;;;;;72.72;36.80;;;;;;;2.02;100.00;99359.25;4285864;82;20991;-84
2022/11/10 04:36:44;;;;;;;74.03;41.02;;;;;;;2.14;100.00;99364.89;4296306;80;21018;-84
2022/11/10 04:43:04;;;;;;;76.02;41.15;;;;;;;2.26;100.00;99361.04;4341380;82;20986;-84
2022/11/10 04:49:24;;;;;;;77.58;42.30;;;;;;;2.32;100.00;99354.39;4344821;82;21408;-84
2022/11/10 04:55:47;;;;;;;81.63;42.38;;;;;;;2.40;100.00;99360.92;4287298;82;20967;-84
2022/11/10 05:02:07;;;;;;;91.15;43.95;;;;;;;2.50;100.00;99367.41;4217241;81;21542;-84
2022/11/10 05:08:46;;;;;;;89.62;47.53;;;;;;;2.55;100.00;99386.97;4285108;82;21516;-85
2022/11/10 05:15:08;;;;;;;93.15;45.45;;;;;;;2.62;100.00;99395.44;4290313;81;21937;-84
2022/11/10 05:21:29;;;;;;;72.55;41.37;;;;;;;2.71;100.00;99391.42;4324195;80;21038;-85
2022/11/10 05:27:49;;;;;;;78.00;40.85;;;;;;;2.78;100.00;99393.91;4284376;81;20982;-85
2022/11/10 05:34:42;;;;;;;72.75;40.25;;;;;;;2.88;100.00;99404.98;4285867;81;21034;-84
2022/11/10 05:41:02;;;;;;;72.22;39.58;;;;;;;2.98;100.00;99414.14;4287501;80;21037;-84
2022/11/10 05:47:21;;;;;;;71.75;38.83;;;;;;;3.02;100.00;99425.36;4285396;81;20958;-84
2022/11/10 05:53:43;;;;;;;65.22;38.05;;;;;;;3.06;100.00;99430.95;4341854;80;20978;-84
2022/11/10 06:00:05;;;;;;;68.07;39.92;;;;;;;3.16;100.00;99443.61;4291711;81;21006;-85
2022/11/10 06:06:25;;;;;;;68.80;38.48;;;;;;;3.23;100.00;99452.07;4292635;81;20983;-84
2022/11/10 06:12:45;;;;;;;72.60;41.90;;;;;;;3.32;100.00;99453.42;4287463;82;21025;-84
2022/11/10 06:19:05;;;;;;;73.37;41.35;;;;;;;3.43;100.00;99467.47;4287891;82;21002;-84
2022/11/10 06:32:52;;;;;;;56.20;32.15;;;;;;;3.60;100.00;99497.27;4290820;81;21607;-84
2022/11/10 06:39:11;;;;;;;75.85;43.42;;;;;;;3.64;100.00;99517.16;4255519;81;21025;-84
2022/11/10 06:45:31;;;;;;;91.45;47.70;;;;;;;3.75;100.00;99526.02;4182815;81;21015;-84
2022/11/10 06:51:51;;;;;;;92.05;47.67;;;;;;;3.82;100.00;99531.75;4252480;81;21090;-84
2022/11/10 06:58:12;;;;;;;78.52;43.83;;;;;;;3.92;100.00;99548.25;4252039;81;21027;-84
2022/11/10 07:04:45;;;;;;;;;;;;;;;3.99;100.00;99550.75;4256305;81;21024;-85
2022/11/10 07:11:05;;;;;;;80.00;43.55;;;;;;;4.09;100.00;99563.16;4265346;81;20131;-84
2022/11/10 07:17:26;;;;;;;82.75;44.15;;;;;;;4.18;100.00;99576.17;4246821;82;21086;-84
2022/11/10 07:23:50;;;;;;;74.22;42.85;;;;;;;4.27;100.00;99586.45;4246120;81;21027;-85
2022/11/10 07:30:12;;;;;;;80.38;44.45;;;;;;;4.35;100.00;99591.07;4244479;81;20984;-85
2022/11/10 07:36:40;;;;;;;86.15;44.67;;;;;;;4.44;100.00;99590.50;4248018;82;21006;-85
2022/11/10 07:43:02;;;;;;;75.70;44.88;;;;;;;4.55;100.00;99598.55;4058472;83;30491;-85
2022/11/10 07:49:27;;;;;;;78.92;45.65;;;;;;;4.68;100.00;99603.02;4017201;86;21111;-85
2022/11/10 08:17:08;;;;;;;84.58;45.30;;;;;;;5.38;100.00;99629.08;4058898;86;21881;-85
2022/11/10 08:23:29;;;;;;;76.60;41.85;;;;;;;5.58;100.00;99639.77;4021714;86;21068;-85
2022/11/10 08:36:54;;;;;;;85.22;43.20;;;;;;;6.02;100.00;99663.71;4064974;87;20979;-84
2022/11/10 08:43:48;;;;;;;82.05;45.28;;;;;;;6.23;100.00;99669.41;3956222;87;21042;-85
2022/11/10 08:50:17;;;;;;;74.70;39.65;;;;;;;6.40;100.00;99684.24;4019167;87;21062;-85
2022/11/10 09:11:08;;;;;;;49.70;26.82;;;;;;;6.93;100.00;99703.94;3900753;89;21198;-86
2022/11/10 09:17:48;;;;;;;70.62;37.28;;;;;;;7.21;100.00;99719.92;3927151;88;21074;-84
2022/11/10 09:24:16;;;;;;;69.58;37.83;;;;;;;7.40;100.00;99725.67;3899507;86;21109;-85
2022/11/10 09:31:13;;;;;;;65.08;35.92;;;;;;;7.54;100.00;99732.97;4017730;84;21074;-85
2022/11/10 09:37:48;;;;;;;65.08;36.03;;;;;;;7.68;100.00;99732.65;4055172;85;21080;-85
2022/11/10 09:44:41;;;;;;;62.50;35.33;;;;;;;7.79;100.00;99726.44;4082828;85;21083;-83
2022/11/10 09:51:43;;;;;;;62.83;33.28;;;;;;;7.93;100.00;99737.81;4100944;84;21011;-84
2022/11/10 09:58:04;;;;;;;57.38;34.13;;;;;;;8.16;100.00;99738.14;4091617;86;21891;-84
2022/11/10 10:04:56;;;;;;;68.45;36.68;;;;;;;8.35;100.00;99751.27;4078514;86;21073;-84
2022/11/10 10:11:35;;;;;;;64.70;35.80;;;;;;;8.49;100.00;99751.71;4111618;85;20992;-82
2022/11/10 10:18:41;;;;;;;67.35;35.25;;;;;;;8.67;100.00;99755.77;4081823;86;21647;-84
2022/11/10 10:25:09;;;;;;;64.03;35.05;;;;;;;8.81;100.00;99756.20;4097207;84;22010;-84
2022/11/10 10:31:42;;;;;;;;;;;;;;;8.93;100.00;99762.42;4090270;86;21024;-84
2022/11/10 10:38:23;;;;;;;60.55;33.45;;;;;;;9.02;100.00;99778.09;4082873;86;20221;-85
2022/11/10 10:45:17;;;;;;;58.70;32.83;;;;;;;9.08;100.00;99784.91;4085871;85;21317;-85
2022/11/10 10:51:39;;;;;;;57.93;33.48;;;;;;;9.20;100.00;99791.72;4085365;86;21068;-85
2022/11/10 10:58:33;;;;;;;64.42;34.50;;;;;;;9.29;100.00;99787.45;4031241;86;21110;-84
2022/11/10 11:05:21;;;;;;;70.03;34.83;;;;;;;9.37;100.00;99794.16;4092908;86;21028;-85
2022/11/10 11:12:19;;;;;;;88.00;48.00;;;;;;;9.38;100.00;99803.16;4085352;84;21122;-85
2022/11/10 11:18:47;;;;;;;99.47;58.68;;;;;;;9.37;100.00;99805.09;4086564;86;21564;-85
2022/11/10 11:25:46;;;;;;;103.35;58.63;;;;;;;9.40;100.00;99806.32;4080639;86;21138;-85
2022/11/10 11:32:37;;;;;;;91.70;49.73;;;;;;;9.40;100.00;99817.25;4082226;86;21067;-85
2022/11/10 11:46:54;;;;;;;88.35;44.77;;;;;;;9.45;100.00;99822.47;4097286;86;21088;-85
2022/11/10 11:53:53;;;;;;;81.70;37.23;;;;;;;9.48;100.00;99825.31;3882003;86;21108;-85
2022/11/10 12:00:20;;;;;;;78.80;38.13;;;;;;;9.49;100.00;99842.48;4076358;86;21047;-85
2022/11/10 12:07:22;;;;;;;69.95;36.95;;;;;;;9.55;100.00;99842.49;4012067;89;20986;-85
2022/11/10 12:14:06;;;;;;;69.95;33.67;;;;;;;9.59;100.00;99844.73;4120316;86;21050;-85
2022/11/10 12:21:04;;;;;;;90.57;39.88;;;;;;;9.68;100.00;99837.77;4073199;86;21554;-85
2022/11/10 12:49:21;;;;;;;56.77;28.20;;;;;;;10.02;100.00;99863.13;3939157;89;21083;-85
2022/11/10 12:56:26;;;;;;;59.88;27.45;;;;;;;10.04;100.00;99875.89;3939566;89;21627;-85
2022/11/10 13:03:01;;;;;;;63.05;28.57;;;;;;;10.07;100.00;99873.25;3995136;89;21028;-85
2022/11/10 13:09:49;;;;;;;62.58;29.27;;;;;;;10.14;100.00;99874.02;3940760;89;21020;-85
2022/11/10 13:16:10;;;;;;;55.58;27.82;;;;;;;10.21;100.00;99876.96;3877213;89;21086;-86
2022/11/10 13:22:52;;;;;;;56.48;27.48;;;;;;;10.25;100.00;99881.38;3940077;89;21017;-85
2022/11/10 13:36:58;;;;;;;57.33;27.85;;;;;;;10.22;100.00;99912.74;3996428;87;21024;-86
2022/11/10 13:57:45;;;;;;;54.73;26.40;;;;;;;9.86;100.00;99922.45;3801194;88;21588;-85
2022/11/10 14:04:43;;;;;;;52.60;26.33;;;;;;;9.74;100.00;99926.60;3807909;91;21081;-85
2022/11/10 14:11:37;;;;;;;51.35;26.50;;;;;;;9.63;100.00;99928.23;3811060;91;21669;-86
2022/11/10 14:18:55;;;;;;;50.23;26.12;;;;;;;9.57;100.00;99939.18;4006850;85;21049;-86
2022/11/10 14:26:02;;;;;;;50.83;26.07;;;;;;;9.45;100.00;99950.36;4043009;86;21079;-86
2022/11/10 14:32:26;;;;;;;43.17;24.45;;;;;;;9.39;100.00;99965.97;4041894;86;21574;-87
2022/11/10 14:46:24;;;;;;;51.55;27.82;;;;;;;9.10;100.00;99980.66;4091259;86;21634;-86
2022/11/10 15:08:03;;;;;;;45.48;23.77;;;;;;;8.92;100.00;99992.95;3881324;85;22143;-86
2022/11/10 15:15:19;;;;;;;51.10;26.40;;;;;;;8.92;100.00;100003.06;4132934;84;21062;-86
2022/11/10 15:21:45;;;;;;;43.40;23.32;;;;;;;8.86;100.00;100013.42;4029893;86;21050;-86
2022/11/10 15:35:12;;;;;;;47.08;25.08;;;;;;;8.75;100.00;100034.11;4085243;85;21081;-85
2022/11/10 15:41:48;;;;;;;51.37;26.53;;;;;;;8.74;100.00;100040.68;3984885;87;21016;-86
2022/11/10 15:48:19;;;;;;;52.48;27.50;;;;;;;8.70;100.00;100045.23;3988776;87;21604;-86
2022/11/10 15:54:45;;;;;;;49.38;27.32;;;;;;;8.66;100.00;100053.07;3989971;87;21023;-86
2022/11/10 16:01:15;;;;;;;48.33;25.63;;;;;;;8.62;100.00;100061.69;3984611;87;21120;-86
2022/11/10 16:08:14;;;;;;;54.63;28.42;;;;;;;8.58;100.00;100065.64;3997848;87;21045;-85
2022/11/10 16:14:30;;;;;;;49.80;27.22;;;;;;;8.53;100.00;100081.44;4022759;86;21059;-86
2022/11/10 16:20:56;;;;;;;49.20;25.82;;;;;;;8.43;100.00;100090.84;4033386;87;21095;-86
2022/11/10 16:27:23;;;;;;;74.70;40.63;;;;;;;8.34;100.00;100097.49;4027145;87;21163;-86
2022/11/10 16:33:45;;;;;;;73.62;39.63;;;;;;;8.30;100.00;100105.53;4037069;86;21692;-86
2022/11/10 16:47:59;;;;;;;73.05;38.15;;;;;;;8.27;100.00;100116.34;4082539;86;21012;-86
2022/11/10 16:54:25;;;;;;;62.62;36.15;;;;;;;8.24;100.00;100117.01;4005718;89;21021;-86
2022/11/10 17:00:52;;;;;;;;;;;;;;;8.23;100.00;100131.20;4097584;86;21000;-86
2022/11/10 17:14:01;;;;;;;73.87;40.67;;;;;;;8.17;100.00;100162.50;4077937;86;21023;-86
2022/11/10 17:20:42;;;;;;;64.55;36.15;;;;;;;8.10;100.00;100181.89;4086104;86;22091;-86
2022/11/10 17:34:07;;;;;;;60.08;34.63;;;;;;;7.84;100.00;100207.36;4086398;86;21018;-86
2022/11/10 17:40:46;;;;;;;63.98;35.10;;;;;;;7.71;100.00;100219.27;3965767;87;22016;-86
2022/11/10 17:47:19;;;;;;;72.00;41.00;;;;;;;7.53;100.00;100219.66;4100693;86;21015;-86
2022/11/10 18:07:50;;;;;;;67.95;38.65;;;;;;;7.31;100.00;100236.98;3947578;87;21028;-86
2022/11/10 18:14:17;;;;;;;61.50;35.25;;;;;;;7.24;100.00;100248.14;4029218;88;21043;-86
2022/11/10 18:20:36;;;;;;;61.65;37.13;;;;;;;7.24;100.00;100252.23;3987357;87;21047;-87
2022/11/10 18:27:37;;;;;;;67.85;38.50;;;;;;;7.24;100.00;100246.78;3947269;86;21031;-86
2022/11/10 18:34:11;;;;;;;61.95;33.83;;;;;;;7.32;100.00;100254.95;3826053;89;21047;-86
2022/11/10 18:40:39;;;;;;;64.07;35.13;;;;;;;7.34;100.00;100253.27;3787998;92;21052;-85
2022/11/10 18:47:29;;;;;;;56.02;33.18;;;;;;;7.30;100.00;100252.30;3762521;92;21598;-85
2022/11/10 18:54:14;;;;;;;69.55;40.05;;;;;;;7.26;100.00;100267.69;3735555;95;21181;-85
2022/11/10 19:00:45;;;;;;;78.87;43.10;;;;;;;7.20;100.00;100274.43;3733398;94;21101;-85
2022/11/10 19:07:12;;;;;;;81.55;44.67;;;;;;;7.12;100.00;100280.13;3775597;88;21053;-85
2022/11/10 19:13:51;;;;;;;86.82;48.05;;;;;;;7.07;100.00;100283.00;4001215;87;21107;-86
2022/11/10 19:20:41;;;;;;;89.15;49.65;;;;;;;7.01;100.00;100286.20;3884025;91;22112;-85
2022/11/10 19:27:38;;;;;;;89.92;48.35;;;;;;;6.95;100.00;100298.37;4043415;87;21089;-85
2022/11/10 19:34:33;;;;;;;96.95;51.58;;;;;;;6.90;100.00;100303.97;3937515;89;21047;-86
2022/11/10 19:41:33;;;;;;;100.82;52.98;;;;;;;6.77;100.00;100302.19;3911642;89;21060;-85
2022/11/10 19:48:04;;;;;;;86.00;49.27;;;;;;;6.69;100.00;100309.22;4004072;87;21076;-85
2022/11/10 19:54:27;;;;;;;83.00;46.80;;;;;;;6.57;100.00;100314.48;4112453;86;21675;-85
2022/11/10 20:00:55;;;;;;;82.57;45.63;;;;;;;6.39;100.00;100331.31;3972425;89;21086;-88
2022/11/10 20:15:05;;;;;;;81.25;42.60;;;;;;;6.06;100.00;100348.30;4076479;86;21621;-86
2022/11/10 20:21:52;;;;;;;86.25;48.13;;;;;;;5.89;100.00;100358.50;4112875;86;21019;-86
2022/11/10 20:28:13;;;;;;;97.27;53.50;;;;;;;5.71;100.00;100370.91;4112937;86;21024;-86
2022/11/10 20:34:43;;;;;;;95.12;48.30;;;;;;;5.55;100.00;100376.46;4116421;86;21113;-86
2022/11/10 20:41:14;;;;;;;124.95;61.08;;;;;;;5.51;100.00;100374.91;4107919;86;21126;-87
2022/11/10 20:47:41;;;;;;;112.08;56.80;;;;;;;5.55;100.00;100383.25;4103854;86;21072;-87
2022/11/10 20:54:08;;;;;;;126.27;58.42;;;;;;;5.49;100.00;100392.09;3965524;84;10000410;-86
2022/11/10 21:00:56;;;;;;;115.10;58.52;;;;;;;5.49;100.00;100406.22;4048238;88;21594;-86
2022/11/10 21:07:55;;;;;;;115.45;58.38;;;;;;;5.39;100.00;100388.24;4096960;86;21008;-84
2022/11/10 21:14:28;;;;;;;96.28;53.35;;;;;;;5.37;100.00;100391.03;4096586;85;21027;-88
2022/11/10 21:21:33;;;;;;;90.65;51.77;;;;;;;5.38;100.00;100392.08;4050151;86;21496;-86
2022/11/10 21:28:04;;;;;;;89.67;49.00;;;;;;;5.37;100.00;100391.03;4113854;86;21415;-86
2022/11/10 21:34:46;;;;;;;94.28;51.10;;;;;;;5.40;100.00;100395.84;4054373;86;21032;-85
2022/11/10 21:41:39;;;;;;;88.42;47.10;;;;;;;5.41;100.00;100399.61;4049783;85;21012;-87
2022/11/10 21:48:11;;;;;;;96.42;50.92;;;;;;;5.37;100.00;100401.89;4046836;86;21076;-87
2022/11/10 21:54:49;;;;;;;80.77;45.60;;;;;;;5.31;100.00;100417.48;4087531;85;21083;-87
2022/11/10 22:01:17;;;;;;;67.65;38.88;;;;;;;5.17;100.00;100412.64;4081419;86;21038;-86
2022/11/10 22:07:45;;;;;;;73.45;39.13;;;;;;;4.99;100.00;100404.09;4079260;86;21191;-85
2022/11/10 22:21:44;;;;;;;62.58;34.67;;;;;;;4.82;100.00;100419.61;4057424;86;21880;-86
2022/11/10 22:35:41;;;;;;;63.17;37.67;;;;;;;4.69;100.00;100416.92;3958363;89;21030;-86
2022/11/10 22:48:41;;;;;;;65.12;35.10;;;;;;;4.57;100.00;100422.05;3935446;86;21181;-86
2022/11/10 22:55:07;;;;;;;72.62;40.65;;;;;;;4.54;100.00;100436.22;3887608;90;21082;-86
2022/11/10 23:01:34;;;;;;;68.42;39.15;;;;;;;4.53;100.00;100435.94;3891153;90;21642;-86
2022/11/10 23:08:02;;;;;;;;;;;;;;;4.25;100.00;100441.08;3972686;87;21119;-86
2022/11/10 23:14:28;;;;;;;85.90;48.80;;;;;;;4.01;100.00;100437.72;3997666;87;20155;-86
2022/11/10 23:21:02;;;;;;;88.50;49.80;;;;;;;3.94;100.00;100440.00;3992055;87;21129;-86
2022/11/10 23:27:22;;;;;;;100.78;54.38;;;;;;;3.83;100.00;100432.59;3998950;87;21116;-86
2022/11/10 23:33:57;;;;;;;94.17;49.75;;;;;;;3.79;100.00;100438.91;3992634;87;21012;-86
2022/11/10 23:40:21;;;;;;;76.30;42.33;;;;;;;3.70;100.00;100433.34;4002936;87;21076;-85
2022/11/10 23:46:56;;;;;;;48.02;27.67;;;;;;;3.59;100.00;100426.47;3990991;88;21068;-86
2022/11/10 23:53:37;;;;;;;52.35;32.10;;;;;;;3.53;100.00;100437.13;4000973;86;21135;-86
